Time;durP1;ratioP1;P1;durP2;ratioP2;P2;SDS_P1;SDS_P2;PMS_P1;PMS_P2;Temp;Humidity;BMP_temperature;BMP_pressure;BME280_temperature;BME280_humidity;BME280_pressure;Samples;Min_cycle;Max_cycle;Signal;HPM_P1;HPM_P2
2021/03/18 00:01:13;;;;;;;2.30;1.70;;;22.00;49.60;;;;;;5035636;28;20545;-69
2021/03/18 00:03:41;;;;;;;2.00;1.60;;;22.10;49.70;;;;;;5035073;28;20183;-69
2021/03/18 00:06:07;;;;;;;2.40;1.87;;;22.10;49.70;;;;;;5033641;28;20444;-69
2021/03/18 00:08:33;;;;;;;2.13;1.70;;;22.00;49.60;;;;;;5034687;28;20414;-69
2021/03/18 00:11:01;;;;;;;1.80;1.70;;;22.00;49.70;;;;;;5034635;28;20794;-70
2021/03/18 00:13:29;;;;;;;1.73;1.53;;;22.00;49.60;;;;;;5034684;28;20514;-69
2021/03/18 00:15:56;;;;;;;2.50;1.57;;;22.00;49.60;;;;;;5033364;28;20411;-69
2021/03/18 00:18:27;;;;;;;1.73;1.50;;;22.00;49.70;;;;;;5034940;28;20506;-69
2021/03/18 00:20:53;;;;;;;1.80;1.70;;;22.00;50.30;;;;;;5034529;28;20955;-70
2021/03/18 00:23:19;;;;;;;2.00;1.80;;;22.00;49.70;;;;;;5034418;28;20414;-69
2021/03/18 00:25:45;;;;;;;2.10;1.67;;;22.00;49.70;;;;;;5034444;28;20549;-69
2021/03/18 00:28:11;;;;;;;1.87;1.67;;;22.00;49.70;;;;;;5034346;28;20414;-69
2021/03/18 00:30:36;;;;;;;5.80;1.70;;;22.00;49.70;;;;;;5034175;28;20195;-69
2021/03/18 00:33:02;;;;;;;2.80;2.03;;;21.90;49.70;;;;;;5034290;28;20168;-69
2021/03/18 00:35:28;;;;;;;1.50;1.30;;;21.90;49.70;;;;;;5034189;28;20172;-69
2021/03/18 00:37:56;;;;;;;1.90;1.43;;;22.00;49.80;;;;;;5034116;28;20184;-68
2021/03/18 00:40:21;;;;;;;1.80;1.57;;;22.00;49.80;;;;;;5032792;28;20521;-69
2021/03/18 00:42:50;;;;;;;2.27;1.70;;;21.90;49.80;;;;;;5034090;28;20541;-69
2021/03/18 00:45:16;;;;;;;2.10;1.50;;;21.90;49.70;;;;;;5034009;28;20168;-68
2021/03/18 00:47:42;;;;;;;2.20;1.70;;;21.90;49.70;;;;;;5033978;28;20414;-69
2021/03/18 00:50:08;;;;;;;3.10;1.47;;;21.90;49.80;;;;;;5033847;28;20458;-69
2021/03/18 00:52:34;;;;;;;2.57;1.83;;;21.90;49.80;;;;;;5033908;28;20245;-69
2021/03/18 00:55:00;;;;;;;1.83;1.60;;;21.90;49.80;;;;;;5034114;28;20925;-69
2021/03/18 00:57:25;;;;;;;2.90;1.70;;;21.90;50.10;;;;;;5034226;28;20171;-69
2021/03/18 00:59:51;;;;;;;1.83;1.50;;;21.90;49.80;;;;;;5031889;28;20716;-69
2021/03/18 01:02:17;;;;;;;2.30;1.67;;;21.90;49.80;;;;;;5033725;28;20167;-70
2021/03/18 01:04:44;;;;;;;2.00;1.80;;;21.90;49.80;;;;;;5034081;28;20203;-69
2021/03/18 01:07:10;;;;;;;1.97;1.37;;;21.90;49.80;;;;;;5033675;28;20706;-69
2021/03/18 01:09:36;;;;;;;2.07;1.47;;;21.80;49.80;;;;;;5032383;28;20497;-69
2021/03/18 01:12:01;;;;;;;3.57;1.50;;;21.90;49.80;;;;;;5032415;28;20593;-69
2021/03/18 01:14:27;;;;;;;3.07;1.60;;;21.90;49.90;;;;;;5033820;28;20175;-70
2021/03/18 01:16:52;;;;;;;3.60;1.83;;;21.90;49.90;;;;;;5032308;28;20191;-67
2021/03/18 01:19:21;;;;;;;1.87;1.60;;;21.90;49.90;;;;;;5033319;28;20188;-69
2021/03/18 01:21:50;;;;;;;2.07;1.63;;;21.90;49.90;;;;;;5015913;28;20177;-69
2021/03/18 01:24:15;;;;;;;1.70;1.60;;;21.90;49.90;;;;;;4999547;28;20948;-70
2021/03/18 01:26:44;;;;;;;1.60;1.30;;;21.80;49.90;;;;;;5033625;28;20415;-70
2021/03/18 01:29:10;;;;;;;1.77;1.43;;;21.90;49.90;;;;;;5033139;28;20577;-69
2021/03/18 01:31:36;;;;;;;1.60;1.33;;;21.80;49.90;;;;;;5033165;28;20465;-69
2021/03/18 01:34:03;;;;;;;1.83;1.60;;;21.80;49.90;;;;;;5033212;28;20452;-70
2021/03/18 01:36:30;;;;;;;1.53;1.37;;;21.90;49.90;;;;;;5033259;28;20430;-69
2021/03/18 01:38:55;;;;;;;2.20;1.80;;;21.80;49.90;;;;;;5015679;28;20426;-69
2021/03/18 01:41:23;;;;;;;2.17;1.53;;;21.80;49.90;;;;;;5033144;28;20440;-69
2021/03/18 01:43:49;;;;;;;1.70;1.33;;;21.80;49.90;;;;;;5031858;28;20182;-69
2021/03/18 01:46:15;;;;;;;2.00;1.70;;;21.80;49.90;;;;;;5031789;28;20484;-69
2021/03/18 01:48:42;;;;;;;2.00;1.53;;;21.80;49.90;;;;;;5032898;28;20450;-69
2021/03/18 01:51:08;;;;;;;2.30;1.90;;;21.80;49.90;;;;;;5031704;28;20536;-70
2021/03/18 01:53:34;;;;;;;2.00;1.40;;;21.80;49.90;;;;;;5015305;28;21008;-69
2021/03/18 01:56:01;;;;;;;2.60;2.13;;;21.80;49.90;;;;;;5032973;28;20434;-69
2021/03/18 01:58:27;;;;;;;1.87;1.50;;;21.80;49.90;;;;;;5015386;28;20472;-70
2021/03/18 02:00:59;;;;;;;2.00;1.57;;;21.80;49.90;;;;;;5031710;28;20765;-69
2021/03/18 02:03:26;;;;;;;2.37;1.90;;;21.80;49.90;;;;;;5015799;28;20393;-69
2021/03/18 02:05:53;;;;;;;2.90;2.13;;;21.80;49.90;;;;;;5033064;28;20460;-69
2021/03/18 02:08:19;;;;;;;1.20;1.10;;;21.80;49.90;;;;;;5031556;28;20468;-68
2021/03/18 02:10:45;;;;;;;2.30;1.40;;;21.80;49.90;;;;;;5034428;28;20516;-70
2021/03/18 02:13:12;;;;;;;2.67;1.90;;;21.80;49.90;;;;;;5036813;28;20168;-69
2021/03/18 02:15:48;;;;;;;1.60;1.17;;;21.80;49.90;;;;;;5036981;28;20818;-69
2021/03/18 02:18:32;;;;;;;3.50;1.40;;;21.80;49.90;;;;;;5036817;28;20935;-69
2021/03/18 02:21:30;;;;;;;2.23;1.50;;;21.80;49.90;;;;;;5036920;28;20451;-69
2021/03/18 02:24:04;;;;;;;2.30;1.67;;;21.80;50.00;;;;;;5019070;28;20459;-69
2021/03/18 02:26:38;;;;;;;1.83;1.63;;;21.70;49.90;;;;;;5037264;28;20390;-69
2021/03/18 02:29:23;;;;;;;1.83;1.40;;;21.70;49.90;;;;;;5035304;28;20437;-70
2021/03/18 02:32:16;;;;;;;1.77;1.53;;;21.70;49.90;;;;;;5035256;28;20450;-69
2021/03/18 02:35:09;;;;;;;1.87;1.43;;;21.70;49.90;;;;;;5035309;28;20409;-69
2021/03/18 02:37:40;;;;;;;1.80;1.50;;;21.70;50.00;;;;;;5035115;28;20521;-69
2021/03/18 02:40:13;;;;;;;2.83;1.50;;;21.70;50.00;;;;;;5035041;28;20532;-69
2021/03/18 02:42:40;;;;;;;1.40;1.30;;;21.70;50.00;;;;;;5018673;28;20407;-69
2021/03/18 02:45:07;;;;;;;1.93;1.47;;;21.70;50.00;;;;;;5035217;28;20417;-69
2021/03/18 02:47:34;;;;;;;2.23;1.70;;;21.70;50.00;;;;;;5036547;28;20493;-70
2021/03/18 02:50:01;;;;;;;1.40;1.10;;;21.70;50.00;;;;;;5034900;28;20434;-69
2021/03/18 02:52:30;;;;;;;1.80;1.60;;;21.70;50.00;;;;;;5034939;28;20746;-69
2021/03/18 02:55:01;;;;;;;3.70;1.80;;;21.60;49.90;;;;;;5035021;28;20432;-69
2021/03/18 02:57:29;;;;;;;1.87;1.40;;;21.70;50.00;;;;;;5018932;28;20406;-68
2021/03/18 02:59:58;;;;;;;1.60;1.30;;;21.70;50.00;;;;;;5036212;28;20828;-69
2021/03/18 03:02:27;;;;;;;2.03;1.40;;;21.70;50.00;;;;;;5035991;28;20414;-68
2021/03/18 03:04:55;;;;;;;1.90;1.70;;;21.70;50.00;;;;;;5034964;28;20521;-69
2021/03/18 03:07:23;;;;;;;2.47;1.63;;;21.60;50.00;;;;;;5034715;28;20893;-69
2021/03/18 03:09:49;;;;;;;2.27;1.30;;;21.70;50.00;;;;;;5034746;28;20529;-69
2021/03/18 03:12:17;;;;;;;1.73;1.37;;;21.70;50.00;;;;;;5034868;28;20944;-69
2021/03/18 03:14:45;;;;;;;1.70;1.20;;;21.70;50.00;;;;;;5034871;28;20902;-69
2021/03/18 03:17:15;;;;;;;2.70;1.60;;;21.60;49.90;;;;;;5034508;28;20892;-69
2021/03/18 03:19:43;;;;;;;1.60;1.27;;;21.70;50.00;;;;;;5034444;28;20435;-69
2021/03/18 03:22:10;;;;;;;1.23;1.10;;;21.70;50.00;;;;;;5035094;28;20422;-69
2021/03/18 03:24:37;;;;;;;2.40;1.60;;;21.70;50.00;;;;;;5017821;28;20414;-69
2021/03/18 03:27:05;;;;;;;3.63;1.40;;;21.70;50.00;;;;;;5034464;28;20417;-69
2021/03/18 03:29:32;;;;;;;2.40;2.20;;;21.70;50.00;;;;;;5034260;28;20430;-69
2021/03/18 03:31:58;;;;;;;1.97;1.33;;;21.70;50.00;;;;;;5034456;28;20454;-69
2021/03/18 03:34:24;;;;;;;2.33;1.30;;;21.70;49.90;;;;;;5017754;28;20405;-69
2021/03/18 03:36:49;;;;;;;2.07;1.37;;;21.70;49.90;;;;;;5035255;28;20187;-69
2021/03/18 03:39:16;;;;;;;1.40;1.20;;;21.70;49.90;;;;;;5035507;28;20188;-70
2021/03/18 03:41:42;;;;;;;1.93;1.60;;;21.70;49.90;;;;;;5017506;28;20171;-69
2021/03/18 03:44:09;;;;;;;1.73;1.50;;;21.70;49.90;;;;;;5035245;28;20414;-68
2021/03/18 03:46:35;;;;;;;2.13;1.50;;;21.70;49.90;;;;;;5035228;28;20414;-69
2021/03/18 03:49:03;;;;;;;1.80;1.53;;;21.70;49.90;;;;;;5035399;28;20778;-69
2021/03/18 03:51:35;;;;;;;1.50;1.10;;;21.70;49.90;;;;;;5035176;28;20508;-69
2021/03/18 03:54:03;;;;;;;2.00;1.50;;;21.70;49.90;;;;;;5017333;28;20804;-69
2021/03/18 03:56:46;;;;;;;5.10;1.30;;;21.70;49.90;;;;;;5033776;28;20453;-70
2021/03/18 03:59:18;;;;;;;1.63;1.20;;;21.70;49.90;;;;;;5034943;28;20482;-68
2021/03/18 04:01:45;;;;;;;2.13;1.50;;;21.70;49.90;;;;;;5035082;28;20403;-69
2021/03/18 04:04:22;;;;;;;1.50;1.30;;;21.70;49.90;;;;;;5033611;28;20464;-69
2021/03/18 04:06:52;;;;;;;1.60;1.33;;;21.70;49.90;;;;;;5033726;28;20764;-69
2021/03/18 04:09:20;;;;;;;1.90;1.53;;;21.60;49.80;;;;;;5033471;28;20850;-69
2021/03/18 04:11:48;;;;;;;4.00;1.37;;;21.70;49.90;;;;;;5033341;28;20485;-70
2021/03/18 04:14:13;;;;;;;1.80;1.20;;;21.70;49.90;;;;;;5034661;28;20875;-69
2021/03/18 04:16:44;;;;;;;2.10;1.60;;;21.70;49.90;;;;;;5016905;28;20442;-69
2021/03/18 04:19:13;;;;;;;1.50;1.27;;;21.70;49.90;;;;;;5034403;28;20245;-69
2021/03/18 04:21:43;;;;;;;6.73;1.73;;;21.70;49.90;;;;;;5034513;28;20512;-70
2021/03/18 04:24:11;;;;;;;1.97;1.40;;;21.70;49.90;;;;;;5034556;28;20804;-69
2021/03/18 04:26:38;;;;;;;2.60;1.60;;;21.60;49.90;;;;;;5034498;28;20437;-69
2021/03/18 04:29:06;;;;;;;1.77;1.30;;;21.70;50.00;;;;;;5034293;28;20480;-70
2021/03/18 04:31:35;;;;;;;1.80;1.50;;;21.60;49.90;;;;;;5016561;28;20552;-70
2021/03/18 04:34:02;;;;;;;1.47;1.37;;;21.60;49.90;;;;;;5032187;28;20442;-69
2021/03/18 04:36:28;;;;;;;1.57;1.30;;;21.60;49.90;;;;;;5016670;28;20473;-69
2021/03/18 04:38:56;;;;;;;1.87;1.30;;;21.60;50.00;;;;;;5017016;28;20435;-70
2021/03/18 04:41:23;;;;;;;1.47;1.23;;;21.60;49.90;;;;;;5034434;28;20797;-68
2021/03/18 04:43:49;;;;;;;2.10;1.60;;;21.60;50.00;;;;;;5034102;28;20457;-70
2021/03/18 04:46:15;;;;;;;1.40;1.20;;;21.60;50.00;;;;;;5016346;28;20418;-69
2021/03/18 04:48:43;;;;;;;1.20;1.10;;;21.60;50.00;;;;;;5033929;28;20402;-69
2021/03/18 04:51:10;;;;;;;2.17;1.30;;;21.60;50.00;;;;;;5033956;28;20450;-69
2021/03/18 04:53:37;;;;;;;2.27;1.30;;;21.60;50.00;;;;;;5034406;28;20430;-69
2021/03/18 04:56:05;;;;;;;3.00;1.40;;;21.50;50.00;;;;;;5033806;28;20472;-69
2021/03/18 04:58:31;;;;;;;1.93;1.60;;;21.50;50.00;;;;;;5032499;28;20517;-69
2021/03/18 05:00:58;;;;;;;1.73;1.27;;;21.50;50.00;;;;;;5033761;28;20501;-69
2021/03/18 05:03:25;;;;;;;1.77;1.23;;;21.50;50.00;;;;;;5016129;28;20426;-69
2021/03/18 05:05:52;;;;;;;2.40;1.23;;;21.50;50.10;;;;;;5032443;28;20929;-69
2021/03/18 05:08:20;;;;;;;1.63;1.33;;;21.50;50.10;;;;;;5016166;28;20456;-69
2021/03/18 05:10:46;;;;;;;1.60;1.40;;;21.50;50.10;;;;;;5015784;28;20505;-69
2021/03/18 05:13:12;;;;;;;1.23;1.00;;;21.50;50.10;;;;;;5032385;28;20403;-69
2021/03/18 05:15:39;;;;;;;1.90;1.53;;;21.50;50.20;;;;;;5032260;28;20917;-69
2021/03/18 05:18:08;;;;;;;1.97;1.37;;;21.40;50.10;;;;;;5015898;28;20776;-69
2021/03/18 05:20:35;;;;;;;1.53;1.27;;;21.40;50.10;;;;;;5033393;28;20486;-69
2021/03/18 05:23:00;;;;;;;1.57;1.40;;;21.40;50.10;;;;;;5032120;28;20411;-70
2021/03/18 05:25:31;;;;;;;1.57;1.30;;;21.40;50.10;;;;;;5015737;28;20764;-69
2021/03/18 05:27:58;;;;;;;1.67;1.13;;;21.40;50.20;;;;;;5033533;28;20551;-69
2021/03/18 05:30:30;;;;;;;2.97;1.57;;;21.40;50.20;;;;;;5031867;28;20879;-70
2021/03/18 05:32:57;;;;;;;2.07;1.70;;;21.40;50.20;;;;;;5016011;28;20399;-69
2021/03/18 05:35:23;;;;;;;3.10;1.80;;;21.40;50.70;;;;;;5032055;28;20788;-69
2021/03/18 05:37:48;;;;;;;2.27;1.97;;;21.40;50.10;;;;;;5015383;28;20430;-68
2021/03/18 05:40:15;;;;;;;3.10;2.17;;;21.40;50.00;;;;;;5031864;28;20290;-69
2021/03/18 05:42:41;;;;;;;3.63;2.53;;;21.40;49.90;;;;;;5033204;28;20262;-69
2021/03/18 05:45:10;;;;;;;2.40;1.70;;;21.40;49.60;;;;;;5033167;28;20917;-69
2021/03/18 05:47:36;;;;;;;2.07;1.50;;;21.40;49.60;;;;;;5031794;28;20554;-69
2021/03/18 05:50:05;;;;;;;2.87;1.50;;;21.40;49.70;;;;;;5031598;28;20850;-70
2021/03/18 05:52:30;;;;;;;2.50;1.60;;;21.40;49.80;;;;;;5031814;28;20237;-69
2021/03/18 05:54:58;;;;;;;2.40;1.63;;;21.40;49.80;;;;;;5031752;28;20929;-70
2021/03/18 05:57:24;;;;;;;3.80;1.60;;;21.40;49.80;;;;;;5031728;28;20172;-67
2021/03/18 05:59:51;;;;;;;3.00;1.80;;;21.50;49.80;;;;;;5031506;28;20430;-69
2021/03/18 06:02:16;;;;;;;3.30;1.70;;;21.50;49.80;;;;;;5031961;28;20413;-69
2021/03/18 06:04:43;;;;;;;2.80;1.80;;;21.50;49.80;;;;;;5032845;28;20407;-69
2021/03/18 06:07:09;;;;;;;3.10;1.63;;;21.50;49.70;;;;;;5033110;28;20167;-69
2021/03/18 06:09:36;;;;;;;2.10;1.47;;;21.50;49.60;;;;;;5031517;28;20438;-69
2021/03/18 06:12:02;;;;;;;1.83;1.40;;;21.50;49.60;;;;;;5032732;28;20457;-69
2021/03/18 06:14:28;;;;;;;2.43;1.77;;;21.60;49.60;;;;;;5031502;28;20732;-68
2021/03/18 06:16:54;;;;;;;5.00;2.03;;;21.60;49.60;;;;;;5015170;28;20414;-68
2021/03/18 06:19:20;;;;;;;3.43;2.00;;;21.60;49.60;;;;;;5032653;28;20658;-68
2021/03/18 06:21:51;;;;;;;4.20;2.30;;;21.60;49.60;;;;;;5015052;28;20233;-69
2021/03/18 06:24:21;;;;;;;2.30;1.83;;;21.60;49.50;;;;;;5031452;28;20925;-68
2021/03/18 06:26:47;;;;;;;1.90;1.37;;;21.60;49.50;;;;;;5032581;28;20509;-68
2021/03/18 06:29:35;;;;;;;2.00;1.50;;;21.60;49.50;;;;;;5032874;28;20458;-68
2021/03/18 06:32:15;;;;;;;2.10;1.30;;;21.70;49.50;;;;;;5032337;28;20468;-67
2021/03/18 06:34:56;;;;;;;1.80;1.27;;;21.60;49.50;;;;;;5015015;28;20402;-68
2021/03/18 06:37:38;;;;;;;2.80;1.60;;;21.60;49.50;;;;;;5032466;28;20548;-66
2021/03/18 06:40:18;;;;;;;2.10;1.30;;;21.70;49.50;;;;;;5032452;28;20418;-67
2021/03/18 06:42:58;;;;;;;2.77;2.30;;;21.70;49.60;;;;;;5032607;28;20421;-68
2021/03/18 06:45:29;;;;;;;1.93;1.10;;;21.60;49.50;;;;;;5031220;28;20440;-66
2021/03/18 06:48:01;;;;;;;3.83;1.50;;;21.60;49.60;;;;;;5031537;28;20403;-68
2021/03/18 06:50:47;;;;;;;1.90;1.37;;;21.70;49.60;;;;;;5015295;28;20465;-67
2021/03/18 06:53:31;;;;;;;3.00;1.60;;;21.70;49.60;;;;;;5032579;28;20406;-68
2021/03/18 06:55:56;;;;;;;3.20;1.73;;;21.70;49.60;;;;;;5032421;28;20847;-68
2021/03/18 06:58:25;;;;;;;2.93;1.50;;;21.70;49.60;;;;;;5035997;28;20437;-67
2021/03/18 07:01:06;;;;;;;1.53;1.30;;;21.70;49.60;;;;;;5034781;28;20201;-66
2021/03/18 07:03:33;;;;;;;1.63;1.53;;;21.70;49.60;;;;;;5036404;28;20904;-68
2021/03/18 07:06:00;;;;;;;4.27;1.73;;;21.70;49.50;;;;;;5034631;28;20410;-67
2021/03/18 07:08:33;;;;;;;1.60;1.40;;;21.70;49.50;;;;;;5035788;28;20402;-68
2021/03/18 07:11:00;;;;;;;3.07;1.50;;;21.80;49.60;;;;;;5034344;28;20481;-68
2021/03/18 07:13:31;;;;;;;4.97;1.53;;;21.80;49.60;;;;;;5034486;28;20457;-67
2021/03/18 07:15:59;;;;;;;2.93;1.50;;;21.90;49.60;;;;;;5034481;28;20410;-68
2021/03/18 07:18:26;;;;;;;2.40;1.40;;;21.80;49.50;;;;;;5034310;28;20414;-67
2021/03/18 07:21:13;;;;;;;1.80;1.30;;;21.90;49.60;;;;;;5018068;28;20410;-68
2021/03/18 07:23:43;;;;;;;3.33;1.57;;;21.90;49.50;;;;;;5034366;28;20484;-67
2021/03/18 07:26:23;;;;;;;1.33;1.20;;;21.90;49.50;;;;;;5034262;28;20442;-66
2021/03/18 07:29:10;;;;;;;2.40;1.20;;;21.90;49.50;;;;;;5035502;28;21012;-67
2021/03/18 07:31:37;;;;;;;2.60;1.50;;;21.90;49.50;;;;;;5033975;28;20523;-68
2021/03/18 07:34:04;;;;;;;2.77;1.70;;;22.00;49.50;;;;;;5034293;28;20461;-68
2021/03/18 07:36:30;;;;;;;2.03;1.40;;;22.00;49.50;;;;;;5034073;28;20434;-67
2021/03/18 07:38:56;;;;;;;2.90;1.93;;;22.00;49.50;;;;;;5035237;28;20473;-68
2021/03/18 07:41:23;;;;;;;2.57;1.40;;;22.00;49.40;;;;;;5035296;28;20168;-68
2021/03/18 07:43:49;;;;;;;1.70;1.40;;;22.10;49.50;;;;;;5017621;28;20180;-68
2021/03/18 07:46:17;;;;;;;1.57;1.33;;;22.10;49.40;;;;;;5034260;28;20493;-66
2021/03/18 07:49:11;;;;;;;3.80;1.37;;;22.10;49.50;;;;;;5017700;28;20439;-67
2021/03/18 07:51:39;;;;;;;2.50;1.80;;;22.10;49.40;;;;;;5034515;28;21042;-67
2021/03/18 07:54:06;;;;;;;2.00;1.53;;;22.10;49.40;;;;;;5033823;28;20408;-67
2021/03/18 07:56:32;;;;;;;2.73;1.60;;;22.10;49.40;;;;;;5017283;28;20414;-68
2021/03/18 07:59:06;;;;;;;2.40;1.23;;;22.10;49.40;;;;;;5034956;28;20429;-68
2021/03/18 08:01:32;;;;;;;1.80;1.10;;;22.10;49.40;;;;;;5034062;28;20594;-66
2021/03/18 08:04:04;;;;;;;5.20;1.90;;;22.10;49.40;;;;;;5033678;28;20448;-68
2021/03/18 08:06:38;;;;;;;3.70;1.30;;;22.20;49.50;;;;;;5017364;28;20188;-68
2021/03/18 08:09:14;;;;;;;2.80;1.70;;;22.20;49.40;;;;;;5034844;28;20840;-68
2021/03/18 08:11:41;;;;;;;4.00;2.00;;;22.20;49.50;;;;;;5033543;28;20445;-68
2021/03/18 08:14:08;;;;;;;2.43;1.33;;;22.20;49.50;;;;;;5034727;28;20429;-68
2021/03/18 08:16:34;;;;;;;1.60;1.47;;;22.20;49.50;;;;;;5034998;28;20456;-68
2021/03/18 08:19:00;;;;;;;3.17;1.40;;;22.20;49.40;;;;;;5016712;28;20941;-68
2021/03/18 08:21:38;;;;;;;2.70;1.93;;;22.20;49.50;;;;;;5035079;28;20183;-68
2021/03/18 08:24:15;;;;;;;3.67;1.60;;;22.20;49.40;;;;;;5033199;28;20458;-68
2021/03/18 08:26:48;;;;;;;6.77;2.07;;;22.20;49.40;;;;;;5034605;28;20394;-68
2021/03/18 08:29:26;;;;;;;2.07;1.50;;;22.20;49.40;;;;;;5034334;28;20430;-68
2021/03/18 08:31:56;;;;;;;2.80;2.00;;;22.20;49.40;;;;;;5033764;28;20454;-68
2021/03/18 08:34:41;;;;;;;4.17;2.57;;;22.20;49.50;;;;;;5034289;28;20406;-68
2021/03/18 08:37:08;;;;;;;2.50;1.53;;;22.20;49.50;;;;;;5034105;28;20948;-68
2021/03/18 08:39:36;;;;;;;4.40;1.73;;;22.20;49.50;;;;;;5032786;28;20434;-68
2021/03/18 08:42:03;;;;;;;3.87;1.80;;;22.30;49.50;;;;;;5032823;28;20422;-67
2021/03/18 08:44:40;;;;;;;5.87;2.10;;;22.30;49.50;;;;;;5033996;28;20785;-68
2021/03/18 08:47:11;;;;;;;3.93;1.90;;;22.30;49.50;;;;;;5033069;28;20960;-68
2021/03/18 08:49:36;;;;;;;7.00;1.97;;;22.30;49.50;;;;;;5033993;28;20426;-68
2021/03/18 08:52:04;;;;;;;4.20;2.50;;;22.30;49.50;;;;;;5033639;28;20476;-68
2021/03/18 08:54:36;;;;;;;5.60;2.00;;;22.30;49.50;;;;;;5033803;28;20501;-68
2021/03/18 08:57:06;;;;;;;2.30;1.40;;;22.40;49.60;;;;;;5034087;28;20765;-68
2021/03/18 08:59:33;;;;;;;4.30;1.97;;;22.30;49.40;;;;;;5032418;28;20458;-68
2021/03/18 09:02:07;;;;;;;4.93;2.20;;;22.30;49.50;;;;;;5033697;28;20417;-67
2021/03/18 09:04:37;;;;;;;4.33;2.43;;;22.40;49.50;;;;;;5033916;28;20410;-67
2021/03/18 09:07:04;;;;;;;5.10;1.90;;;22.30;49.40;;;;;;5032333;28;20419;-68
2021/03/18 09:09:29;;;;;;;4.53;2.17;;;22.30;49.40;;;;;;5032594;28;20817;-67
2021/03/18 09:11:55;;;;;;;5.57;2.17;;;22.40;49.50;;;;;;5033407;28;20484;-68
2021/03/18 09:14:21;;;;;;;3.90;2.30;;;22.40;49.50;;;;;;5032298;28;20171;-68
2021/03/18 09:16:47;;;;;;;7.53;2.10;;;22.40;49.60;;;;;;5033528;28;20172;-68
2021/03/18 09:19:13;;;;;;;2.47;1.97;;;22.40;49.50;;;;;;5031612;28;20199;-68
2021/03/18 09:21:43;;;;;;;3.90;2.20;;;22.40;49.60;;;;;;5033407;28;20465;-67
2021/03/18 09:24:11;;;;;;;4.43;1.73;;;22.40;49.50;;;;;;5033337;28;20188;-67
2021/03/18 09:26:40;;;;;;;3.33;2.20;;;22.40;49.50;;;;;;5033417;28;20414;-68
2021/03/18 09:29:07;;;;;;;7.30;2.60;;;22.40;49.60;;;;;;5031935;28;20492;-67
2021/03/18 09:31:32;;;;;;;3.30;2.00;;;22.40;49.60;;;;;;5031970;28;20457;-68
2021/03/18 09:33:59;;;;;;;4.57;2.10;;;22.40;49.60;;;;;;5031954;28;20421;-67
2021/03/18 09:36:27;;;;;;;5.43;2.30;;;22.40;49.50;;;;;;5031873;28;20167;-67
2021/03/18 09:39:05;;;;;;;5.30;1.80;;;22.40;49.60;;;;;;5033502;28;20434;-68
2021/03/18 09:41:34;;;;;;;4.40;2.40;;;22.40;49.60;;;;;;5033303;28;20417;-67
2021/03/18 09:44:20;;;;;;;3.93;2.03;;;22.40;49.60;;;;;;5033191;28;20414;-68
2021/03/18 09:46:57;;;;;;;3.57;2.10;;;22.40;49.70;;;;;;5033276;28;20414;-68
2021/03/18 09:49:30;;;;;;;4.67;1.70;;;22.40;49.60;;;;;;5033086;28;20433;-68
2021/03/18 09:51:56;;;;;;;2.60;2.20;;;22.40;49.60;;;;;;5033137;28;20486;-68
2021/03/18 09:54:23;;;;;;;3.63;2.13;;;22.40;50.20;;;;;;5032940;28;20473;-68
2021/03/18 09:56:53;;;;;;;4.20;2.20;;;22.40;49.60;;;;;;5032961;28;20536;-67
2021/03/18 09:59:22;;;;;;;5.27;2.50;;;22.40;49.60;;;;;;5031587;28;20560;-68
2021/03/18 10:01:49;;;;;;;6.07;2.20;;;22.50;49.70;;;;;;5032865;28;20410;-66
2021/03/18 10:04:17;;;;;;;3.93;2.10;;;22.50;49.70;;;;;;5031556;28;20499;-67
2021/03/18 10:06:54;;;;;;;2.73;1.90;;;22.50;49.60;;;;;;5033616;28;20817;-68
2021/03/18 10:09:36;;;;;;;4.03;2.00;;;22.50;49.60;;;;;;5032797;28;20418;-68
2021/03/18 10:12:31;;;;;;;3.60;2.20;;;22.50;49.60;;;;;;5032885;28;20446;-68
2021/03/18 10:15:03;;;;;;;5.13;2.50;;;22.50;49.70;;;;;;5023906;28;20428;-68
2021/03/18 10:17:37;;;;;;;4.37;2.40;;;22.50;49.60;;;;;;5033038;28;20391;-67
2021/03/18 10:20:15;;;;;;;5.10;2.80;;;22.50;49.60;;;;;;5031244;28;20437;-67
2021/03/18 10:22:46;;;;;;;5.03;2.57;;;22.50;49.60;;;;;;5032874;28;20445;-67
2021/03/18 10:25:23;;;;;;;4.30;2.03;;;22.50;49.60;;;;;;5032656;28;20390;-67
2021/03/18 10:28:18;;;;;;;6.20;2.00;;;22.60;50.20;;;;;;5032639;28;20544;-67
2021/03/18 10:30:49;;;;;;;2.37;1.70;;;22.60;49.70;;;;;;5032799;28;20976;-68
2021/03/18 10:33:21;;;;;;;5.77;2.17;;;22.50;49.60;;;;;;5036648;28;20862;-67
2021/03/18 10:35:53;;;;;;;4.20;2.37;;;22.60;49.70;;;;;;5037248;28;20741;-67
2021/03/18 10:38:34;;;;;;;4.13;2.20;;;22.60;49.70;;;;;;5035168;28;20430;-68
2021/03/18 10:41:06;;;;;;;2.80;1.53;;;22.60;49.60;;;;;;5036486;28;20478;-67
2021/03/18 10:43:40;;;;;;;3.87;1.80;;;22.60;49.70;;;;;;5036340;28;20845;-68
2021/03/18 10:46:08;;;;;;;6.10;2.07;;;22.60;49.60;;;;;;5036325;28;20395;-67
2021/03/18 10:48:36;;;;;;;3.47;1.80;;;22.60;49.70;;;;;;5036467;28;20402;-67
2021/03/18 10:51:23;;;;;;;3.23;2.07;;;22.60;49.60;;;;;;5034864;28;20454;-67
2021/03/18 10:53:50;;;;;;;4.30;2.30;;;22.60;49.60;;;;;;5036081;28;20484;-68
2021/03/18 10:56:19;;;;;;;5.73;2.17;;;22.60;49.60;;;;;;5036308;28;20414;-67
2021/03/18 10:58:46;;;;;;;3.10;2.30;;;22.60;49.60;;;;;;5034721;28;20437;-68
2021/03/18 11:01:14;;;;;;;2.80;1.97;;;22.60;49.60;;;;;;5035968;28;20416;-68
2021/03/18 11:03:41;;;;;;;3.60;1.97;;;22.60;49.60;;;;;;5036020;28;20778;-68
2021/03/18 11:06:24;;;;;;;3.00;1.93;;;22.60;49.60;;;;;;5035940;28;20826;-68
2021/03/18 11:08:54;;;;;;;4.60;1.70;;;22.60;49.50;;;;;;5036154;28;20480;-68
2021/03/18 11:11:28;;;;;;;4.80;1.93;;;22.60;49.60;;;;;;5035814;28;20794;-67
2021/03/18 11:14:06;;;;;;;5.67;2.30;;;22.60;49.60;;;;;;5035848;28;20886;-66
2021/03/18 11:16:32;;;;;;;4.13;2.30;;;22.60;49.60;;;;;;5035769;28;20402;-68
2021/03/18 11:19:00;;;;;;;4.53;1.80;;;22.60;49.60;;;;;;5035700;28;20418;-68
2021/03/18 11:21:34;;;;;;;3.03;1.57;;;22.60;49.60;;;;;;5034441;28;20215;-67
2021/03/18 11:24:19;;;;;;;2.00;1.60;;;22.60;49.60;;;;;;5035647;28;20436;-68
2021/03/18 11:26:51;;;;;;;4.50;1.97;;;22.60;49.60;;;;;;5035760;28;20449;-68
2021/03/18 11:29:18;;;;;;;2.60;1.70;;;22.60;49.60;;;;;;5035466;28;20441;-67
2021/03/18 11:31:49;;;;;;;3.80;1.83;;;22.60;49.70;;;;;;5035440;28;20449;-67
2021/03/18 11:34:24;;;;;;;3.20;2.00;;;22.60;49.60;;;;;;5035597;28;20474;-68
2021/03/18 11:36:52;;;;;;;3.00;1.70;;;22.60;49.60;;;;;;5035199;28;20440;-66
2021/03/18 11:39:19;;;;;;;2.83;1.70;;;22.60;49.60;;;;;;5035458;28;20423;-68
2021/03/18 11:41:45;;;;;;;3.10;1.70;;;22.60;49.60;;;;;;5034447;28;20699;-65
2021/03/18 11:44:13;;;;;;;3.20;1.97;;;22.60;49.60;;;;;;5033706;28;20414;-67
2021/03/18 11:46:39;;;;;;;3.83;2.10;;;22.60;49.60;;;;;;5035064;28;20410;-68
2021/03/18 11:49:05;;;;;;;5.40;1.90;;;22.60;49.60;;;;;;5033821;28;20519;-67
2021/03/18 11:51:30;;;;;;;2.23;1.80;;;22.60;49.60;;;;;;5033780;28;20203;-68
2021/03/18 11:53:56;;;;;;;6.50;2.10;;;22.70;49.70;;;;;;5035285;28;20622;-67
2021/03/18 11:56:22;;;;;;;2.27;1.53;;;22.70;49.60;;;;;;5035244;28;20167;-68
2021/03/18 11:58:48;;;;;;;3.40;1.70;;;22.70;49.60;;;;;;5035046;28;20216;-66
2021/03/18 12:01:15;;;;;;;3.53;1.60;;;22.70;49.60;;;;;;5035180;28;20438;-67
2021/03/18 12:03:41;;;;;;;5.27;2.10;;;22.70;49.60;;;;;;5035050;28;20187;-68
2021/03/18 12:06:06;;;;;;;2.13;1.30;;;22.70;49.60;;;;;;5034777;28;20421;-67
2021/03/18 12:08:32;;;;;;;2.40;1.53;;;22.70;50.20;;;;;;5034699;28;20179;-68
2021/03/18 12:10:58;;;;;;;2.90;1.70;;;22.70;49.60;;;;;;5034508;28;20198;-66
2021/03/18 12:13:24;;;;;;;3.10;2.20;;;22.70;49.60;;;;;;5034838;28;20171;-68
2021/03/18 12:15:49;;;;;;;3.40;1.60;;;22.70;49.60;;;;;;5034540;28;20498;-68
2021/03/18 12:18:16;;;;;;;3.50;1.73;;;22.70;49.60;;;;;;5034809;28;20673;-68
2021/03/18 12:20:42;;;;;;;3.57;1.90;;;22.70;49.60;;;;;;5034447;28;20674;-68
2021/03/18 12:23:08;;;;;;;2.50;1.93;;;22.70;49.60;;;;;;5034952;28;20453;-68
2021/03/18 12:25:33;;;;;;;3.27;1.80;;;22.70;49.60;;;;;;5033267;28;20176;-68
2021/03/18 12:27:59;;;;;;;3.90;1.97;;;22.70;49.60;;;;;;5034344;28;20578;-68
2021/03/18 12:30:25;;;;;;;2.60;1.43;;;22.70;49.60;;;;;;5034219;28;20203;-67
2021/03/18 12:32:52;;;;;;;2.57;1.43;;;22.70;49.60;;;;;;5034244;28;20172;-67
2021/03/18 12:35:20;;;;;;;5.03;1.67;;;22.70;49.60;;;;;;5034190;28;20639;-68
2021/03/18 12:37:47;;;;;;;3.37;1.80;;;22.70;49.60;;;;;;5033913;28;20434;-68
2021/03/18 12:40:13;;;;;;;2.63;1.70;;;22.70;49.60;;;;;;5034409;28;20465;-68
2021/03/18 12:42:40;;;;;;;2.73;1.60;;;22.70;49.60;;;;;;5032840;28;20468;-68
2021/03/18 12:45:09;;;;;;;3.07;1.90;;;22.70;49.60;;;;;;5033950;28;20414;-67
2021/03/18 12:47:35;;;;;;;5.23;1.90;;;22.70;49.60;;;;;;5033959;28;20469;-68
2021/03/18 12:50:11;;;;;;;3.20;1.87;;;22.70;49.60;;;;;;5032600;28;20526;-67
2021/03/18 12:52:38;;;;;;;3.33;1.90;;;22.70;49.60;;;;;;5032548;28;20410;-67
2021/03/18 12:55:05;;;;;;;4.67;1.63;;;22.70;49.60;;;;;;5033164;28;20410;-67
2021/03/18 12:57:31;;;;;;;4.30;2.17;;;22.60;49.50;;;;;;5033722;28;20494;-67
2021/03/18 12:59:57;;;;;;;4.13;2.40;;;22.60;49.60;;;;;;5033654;28;20526;-67